Time;durP1;ratioP1;P1;durP2;ratioP2;P2;SDS_P1;SDS_P2;PMS_P1;PMS_P2;Temp;Humidity;BMP_temperature;BMP_pressure;BME280_temperature;BME280_humidity;BME280_pressure;Samples;Min_cycle;Max_cycle;Signal;HPM_P1;HPM_P2
2023/11/12 00:00:45;;;;;;;2.20;2.00;;;5.70;1.00;;;;;;4942389;29;20395;-84
2023/11/12 00:03:54;;;;;;;;;;;;;;;;;;;;;
2023/11/12 00:07:05;;;;;;;3.08;1.75;;;6.50;1.00;;;;;;4964717;28;20969;-84
2023/11/12 00:10:20;;;;;;;2.63;1.53;;;5.30;1.00;;;;;;4964995;28;20971;-84
2023/11/12 00:17:10;;;;;;;2.75;2.00;;;6.10;1.00;;;;;;4982212;28;20407;-84
2023/11/12 00:20:27;;;;;;;1.60;1.50;;;7.40;1.00;;;;;;4964311;28;20392;-84
2023/11/12 00:26:23;;;;;;;1.58;1.42;;;6.10;1.00;;;;;;4983399;28;20891;-84
2023/11/12 00:29:24;;;;;;;;;;;;;;;;;;;;;
2023/11/12 00:32:22;;;;;;;1.77;1.50;;;6.50;1.00;;;;;;4982781;28;20482;-84
2023/11/12 00:35:22;;;;;;;1.80;1.60;;;5.50;1.00;;;;;;4969381;28;20396;-83
2023/11/12 00:38:14;;;;;;;;;;;;;;;;;;;;;
2023/11/12 00:41:19;;;;;;;;;;;;;;;;;;;;;
2023/11/12 00:44:00;;;;;;;;;;;;;;;;;;;;;
2023/11/12 00:46:46;;;;;;;2.92;1.42;;;5.30;1.00;;;;;;4987462;28;20419;-83
2023/11/12 00:49:51;;;;;;;1.58;1.48;;;5.30;1.00;;;;;;4969576;28;20446;-82
2023/11/12 00:52:48;;;;;;;1.50;1.40;;;6.00;1.00;;;;;;4985021;28;20416;-83
2023/11/12 00:59:06;;;;;;;;;;;;;;;;;;;;;
2023/11/12 01:02:09;;;;;;;;;;;;;;;;;;;;;
2023/11/12 01:05:12;;;;;;;3.07;1.60;;;7.90;1.00;;;;;;4963261;29;20465;-85
2023/11/12 01:08:31;;;;;;;3.08;2.10;;;6.70;1.00;;;;;;4949297;28;20425;-83
2023/11/12 01:21:02;;;;;;;1.70;1.20;;;5.30;1.00;;;;;;4978131;28;20801;-82
2023/11/12 01:30:48;;;;;;;1.90;1.42;;;6.70;1.00;;;;;;4969819;28;20761;-83
2023/11/12 01:50:46;;;;;;;2.78;1.50;;;6.50;1.00;;;;;;4958153;28;20392;-83
2023/11/12 01:57:15;;;;;;;3.60;1.83;;;5.00;1.00;;;;;;4969233;28;20396;-83
2023/11/12 02:09:36;;;;;;;3.25;1.27;;;4.60;1.00;;;;;;5000291;23;20438;-84
2023/11/12 02:12:02;;;;;;;1.90;1.20;;;4.60;1.00;;;;;;4987606;28;20422;-85
2023/11/12 02:14:27;;;;;;;4.53;1.20;;;4.60;1.00;;;;;;5004509;28;20889;-84
2023/11/12 02:16:53;;;;;;;3.30;1.10;;;4.60;1.00;;;;;;5005522;28;20450;-83
2023/11/12 02:19:26;;;;;;;1.50;1.40;;;4.10;1.00;;;;;;5001381;28;20399;-84
2023/11/12 02:21:52;;;;;;;1.30;1.00;;;4.70;1.00;;;;;;4969047;28;20399;-83
2023/11/12 02:24:19;;;;;;;2.30;1.05;;;4.70;1.00;;;;;;4967937;28;20404;-87
2023/11/12 02:26:46;;;;;;;2.35;1.20;;;4.60;1.00;;;;;;4984575;28;20419;-86
2023/11/12 02:29:12;;;;;;;3.30;1.38;;;4.80;1.00;;;;;;4967881;28;20404;-83
2023/11/12 02:31:37;;;;;;;2.95;1.10;;;4.30;1.00;;;;;;4985363;28;20412;-83
2023/11/12 02:34:03;;;;;;;1.77;1.00;;;4.30;1.00;;;;;;4967014;28;20408;-84
2023/11/12 02:36:29;;;;;;;2.90;1.33;;;4.50;1.00;;;;;;4985520;28;20856;-84
2023/11/12 02:38:54;;;;;;;1.42;1.10;;;4.40;1.00;;;;;;4984840;28;20402;-84
2023/11/12 02:41:22;;;;;;;2.60;1.40;;;4.30;1.00;;;;;;4985413;28;20414;-85
2023/11/12 02:43:49;;;;;;;1.98;1.08;;;4.00;1.00;;;;;;4985207;28;20416;-84
2023/11/12 02:46:15;;;;;;;1.40;1.10;;;4.10;1.00;;;;;;4968769;28;20388;-85
2023/11/12 02:49:02;;;;;;;2.67;1.20;;;4.40;1.00;;;;;;4967472;28;20713;-85
2023/11/12 02:51:28;;;;;;;2.45;1.00;;;4.50;1.00;;;;;;4985622;28;20483;-84
2023/11/12 02:53:54;;;;;;;2.80;1.30;;;4.40;1.00;;;;;;4984269;28;20443;-84
2023/11/12 02:56:22;;;;;;;5.80;1.80;;;4.30;1.00;;;;;;4967174;28;20440;-84
2023/11/12 02:58:48;;;;;;;1.80;1.05;;;4.20;1.00;;;;;;4985406;28;20388;-86
2023/11/12 03:01:14;;;;;;;2.22;1.17;;;4.40;1.00;;;;;;4967128;28;20392;-84
2023/11/12 03:03:40;;;;;;;1.65;1.20;;;4.40;1.00;;;;;;4984215;28;20950;-84
2023/11/12 03:06:05;;;;;;;2.60;1.20;;;3.90;1.00;;;;;;4983856;28;20384;-85
2023/11/12 03:08:31;;;;;;;4.33;1.50;;;4.40;1.00;;;;;;4984590;28;20396;-86
2023/11/12 03:10:57;;;;;;;2.60;1.50;;;4.40;1.00;;;;;;4984591;28;20499;-85
2023/11/12 03:13:23;;;;;;;5.60;1.20;;;4.40;1.00;;;;;;4984743;28;20466;-85
2023/11/12 03:15:48;;;;;;;1.83;0.80;;;4.80;1.00;;;;;;4984520;28;20407;-85
2023/11/12 03:18:14;;;;;;;2.27;1.13;;;4.40;1.00;;;;;;4967618;28;20389;-84
2023/11/12 03:20:39;;;;;;;2.20;1.30;;;4.50;1.00;;;;;;4984156;28;20396;-85
2023/11/12 03:23:07;;;;;;;1.60;1.00;;;4.50;1.00;;;;;;4984727;28;20405;-85
2023/11/12 03:25:32;;;;;;;1.80;1.00;;;4.50;1.00;;;;;;4983754;28;20392;-85
2023/11/12 03:27:59;;;;;;;1.20;1.00;;;4.50;1.00;;;;;;4984786;28;20407;-85
2023/11/12 03:30:24;;;;;;;1.05;1.00;;;6.70;1.00;;;;;;4966887;28;20451;-84
2023/11/12 03:32:50;;;;;;;3.53;1.20;;;4.50;1.00;;;;;;4983766;28;20412;-86
2023/11/12 03:35:16;;;;;;;2.70;1.20;;;4.10;1.00;;;;;;4966099;28;20388;-85
2023/11/12 03:37:41;;;;;;;2.88;1.40;;;4.30;1.00;;;;;;4984114;28;20392;-85
2023/11/12 03:40:08;;;;;;;2.40;1.10;;;3.50;1.00;;;;;;4983309;28;20403;-84
2023/11/12 03:42:33;;;;;;;2.00;1.40;;;4.40;1.00;;;;;;4984628;28;20427;-86
2023/11/12 03:44:59;;;;;;;2.78;1.05;;;4.30;1.00;;;;;;4992034;28;20396;-82
2023/11/12 03:47:25;;;;;;;1.98;1.40;;;3.70;1.00;;;;;;4994633;28;20396;-83
2023/11/12 03:49:50;;;;;;;1.80;1.00;;;4.20;1.00;;;;;;4976692;28;20384;-83
2023/11/12 03:52:16;;;;;;;3.08;1.30;;;3.80;1.00;;;;;;4991894;28;20481;-83
2023/11/12 03:54:42;;;;;;;4.80;1.20;;;4.20;1.00;;;;;;4985242;28;20400;-84
2023/11/12 03:57:09;;;;;;;1.92;1.02;;;3.90;1.00;;;;;;4986424;28;20463;-84
2023/11/12 03:59:36;;;;;;;2.80;1.30;;;5.10;1.00;;;;;;4985942;28;20388;-84
2023/11/12 04:02:02;;;;;;;1.30;1.10;;;4.40;1.00;;;;;;4985783;28;20399;-83
2023/11/12 04:04:28;;;;;;;2.88;1.27;;;4.30;1.00;;;;;;4987015;28;20460;-84
2023/11/12 04:06:53;;;;;;;1.90;1.05;;;4.00;1.00;;;;;;4987098;28;20896;-83
2023/11/12 04:09:19;;;;;;;3.70;1.30;;;4.10;1.00;;;;;;4971878;28;20412;-84
2023/11/12 04:11:45;;;;;;;2.50;1.40;;;7.90;1.00;;;;;;4988842;28;20400;-84
2023/11/12 04:14:10;;;;;;;3.50;1.40;;;3.70;1.00;;;;;;4988271;28;20386;-85
2023/11/12 04:16:36;;;;;;;3.10;1.17;;;3.70;1.00;;;;;;4988421;28;20400;-85
2023/11/12 04:19:05;;;;;;;1.40;0.90;;;4.00;1.00;;;;;;4992203;28;20424;-83
2023/11/12 04:21:31;;;;;;;2.17;1.20;;;4.20;1.00;;;;;;4980648;28;20420;-83
2023/11/12 04:23:56;;;;;;;3.10;1.30;;;3.80;1.00;;;;;;4991117;28;20407;-85
2023/11/12 04:26:22;;;;;;;4.27;1.30;;;3.50;1.00;;;;;;4989956;28;20891;-84
2023/11/12 04:28:48;;;;;;;2.75;1.60;;;4.10;1.00;;;;;;4973171;28;20411;-84
2023/11/12 04:31:13;;;;;;;2.87;1.10;;;4.10;1.00;;;;;;4988049;28;20396;-85
2023/11/12 04:33:39;;;;;;;1.80;1.20;;;3.90;1.00;;;;;;4987071;28;20439;-84
2023/11/12 04:36:05;;;;;;;2.40;1.30;;;3.20;1.00;;;;;;4970363;28;20495;-85
2023/11/12 04:38:30;;;;;;;3.10;1.27;;;4.30;1.00;;;;;;4986902;28;20388;-85
2023/11/12 04:40:56;;;;;;;1.77;1.30;;;4.20;1.00;;;;;;4986304;28;20400;-85
2023/11/12 04:43:21;;;;;;;2.00;1.20;;;4.20;1.00;;;;;;4970304;28;20912;-85
2023/11/12 04:45:47;;;;;;;2.00;1.27;;;4.20;1.00;;;;;;4968657;28;20411;-85
2023/11/12 04:48:13;;;;;;;2.10;1.50;;;4.40;1.00;;;;;;4968900;28;20531;-85
2023/11/12 04:50:39;;;;;;;2.13;1.00;;;4.20;1.00;;;;;;4969402;28;20800;-85
2023/11/12 04:53:06;;;;;;;1.58;1.00;;;4.50;1.00;;;;;;4985873;28;20412;-85
2023/11/12 04:55:31;;;;;;;2.00;1.20;;;4.40;1.00;;;;;;4985911;28;20483;-85
2023/11/12 04:57:57;;;;;;;3.43;1.23;;;4.60;1.00;;;;;;4986599;28;20411;-85
2023/11/12 05:00:23;;;;;;;2.40;1.10;;;4.40;1.00;;;;;;4986526;28;21033;-85
2023/11/12 05:02:48;;;;;;;1.77;1.00;;;4.50;1.00;;;;;;4985817;28;20400;-84
2023/11/12 05:05:17;;;;;;;3.10;1.70;;;4.70;1.00;;;;;;4986031;28;20416;-84
2023/11/12 05:07:43;;;;;;;2.30;1.15;;;4.20;1.00;;;;;;4985177;28;20424;-85
2023/11/12 05:10:11;;;;;;;1.60;1.13;;;4.50;1.00;;;;;;4985807;28;20408;-85
2023/11/12 05:12:37;;;;;;;3.07;1.40;;;4.80;1.00;;;;;;4985679;28;20931;-86
2023/11/12 05:15:05;;;;;;;2.35;1.30;;;4.50;1.00;;;;;;4985038;28;20481;-86
2023/11/12 05:17:30;;;;;;;2.10;1.20;;;4.80;1.00;;;;;;4967860;28;20482;-84
2023/11/12 05:19:56;;;;;;;1.50;1.20;;;4.60;1.00;;;;;;4985010;28;20463;-85
2023/11/12 05:22:21;;;;;;;3.90;1.30;;;4.60;1.00;;;;;;4968344;28;20471;-86
2023/11/12 05:24:51;;;;;;;2.23;1.40;;;4.40;1.00;;;;;;4981121;28;20422;-83
2023/11/12 05:27:17;;;;;;;3.25;1.48;;;4.40;1.00;;;;;;4982147;28;20411;-84
2023/11/12 05:29:43;;;;;;;1.80;1.20;;;4.50;1.00;;;;;;4999326;28;20471;-84
2023/11/12 05:32:08;;;;;;;2.50;1.10;;;4.50;1.00;;;;;;4996822;28;20432;-85
2023/11/12 05:34:34;;;;;;;3.50;1.50;;;4.60;1.00;;;;;;4986391;28;20391;-87
2023/11/12 05:36:59;;;;;;;1.80;1.10;;;4.60;1.00;;;;;;4973959;28;20395;-86
2023/11/12 05:39:25;;;;;;;2.37;1.30;;;4.50;1.00;;;;;;4992787;28;20378;-84
2023/11/12 05:41:51;;;;;;;4.85;1.48;;;4.70;1.00;;;;;;4991476;28;20407;-85
2023/11/12 05:44:16;;;;;;;3.17;1.55;;;4.50;1.00;;;;;;4992680;28;20380;-85
2023/11/12 05:46:42;;;;;;;2.13;1.60;;;6.70;1.00;;;;;;4968604;28;20509;-86
2023/11/12 05:49:07;;;;;;;3.67;1.90;;;4.10;1.00;;;;;;4984538;28;20400;-86
2023/11/12 05:51:33;;;;;;;3.60;1.50;;;4.30;1.00;;;;;;4987745;28;20392;-84
2023/11/12 05:53:58;;;;;;;3.23;1.20;;;4.40;1.00;;;;;;4991563;28;20472;-85
2023/11/12 05:56:24;;;;;;;1.50;1.10;;;4.50;1.00;;;;;;4974921;28;20408;-86
2023/11/12 05:58:50;;;;;;;3.07;1.20;;;4.70;1.00;;;;;;4970839;28;20396;-87
2023/11/12 06:01:17;;;;;;;2.20;1.10;;;4.70;1.00;;;;;;4985232;28;20384;-86
2023/11/12 06:03:43;;;;;;;2.47;0.98;;;4.60;1.00;;;;;;4983908;28;20392;-86
2023/11/12 06:06:08;;;;;;;1.92;1.00;;;6.50;1.00;;;;;;4966138;28;20392;-86
2023/11/12 06:08:34;;;;;;;2.72;1.45;;;4.30;1.00;;;;;;4984101;28;20388;-86
2023/11/12 06:11:00;;;;;;;2.60;1.30;;;4.80;1.00;;;;;;4967397;28;21039;-84
2023/11/12 06:13:25;;;;;;;2.83;1.27;;;4.20;1.00;;;;;;4996585;28;20420;-83
2023/11/12 06:15:51;;;;;;;2.28;1.20;;;4.50;1.00;;;;;;4987527;28;20408;-85
2023/11/12 06:18:16;;;;;;;2.60;1.35;;;4.80;1.00;;;;;;4966276;28;20463;-86
2023/11/12 06:20:42;;;;;;;1.30;1.20;;;4.80;1.00;;;;;;4966995;28;20397;-85
2023/11/12 06:23:07;;;;;;;3.97;1.40;;;4.70;1.00;;;;;;4992454;28;20388;-82
2023/11/12 06:25:33;;;;;;;1.70;1.30;;;4.10;1.00;;;;;;4998210;28;20420;-81
2023/11/12 06:27:58;;;;;;;2.50;1.10;;;4.80;1.00;;;;;;4998309;28;20384;-81
2023/11/12 06:30:24;;;;;;;1.60;1.30;;;4.90;1.00;;;;;;4997772;28;20396;-82
2023/11/12 06:32:50;;;;;;;1.30;1.10;;;4.80;1.00;;;;;;4997925;28;20435;-82
2023/11/12 06:35:16;;;;;;;1.90;1.40;;;4.70;1.00;;;;;;4998738;28;20396;-82
2023/11/12 06:37:41;;;;;;;2.30;1.30;;;4.80;1.00;;;;;;4998614;28;20447;-82
2023/11/12 06:40:08;;;;;;;2.50;1.10;;;4.70;1.00;;;;;;4981524;28;20434;-81
2023/11/12 06:42:33;;;;;;;1.63;1.45;;;5.10;1.00;;;;;;4998439;28;20400;-82
2023/11/12 06:44:59;;;;;;;2.87;1.30;;;5.00;1.00;;;;;;4979289;28;20411;-84
2023/11/12 06:47:24;;;;;;;5.03;1.50;;;4.90;1.00;;;;;;4991483;28;20415;-84
2023/11/12 06:49:50;;;;;;;2.00;1.40;;;4.90;1.00;;;;;;4990740;28;20459;-83
2023/11/12 06:52:17;;;;;;;2.90;1.30;;;4.90;1.00;;;;;;4974542;28;20402;-83
2023/11/12 06:54:43;;;;;;;2.60;1.50;;;5.10;1.00;;;;;;4972648;28;20408;-84
2023/11/12 06:57:09;;;;;;;4.38;1.40;;;4.70;1.00;;;;;;4975360;28;20492;-84
2023/11/12 06:59:34;;;;;;;2.60;1.42;;;4.80;1.00;;;;;;4975485;28;20400;-82
2023/11/12 07:02:00;;;;;;;2.00;1.45;;;4.80;1.00;;;;;;4991855;28;20392;-85
2023/11/12 07:04:25;;;;;;;2.22;1.33;;;4.50;1.00;;;;;;4979322;28;20417;-84
2023/11/12 07:06:52;;;;;;;2.80;1.60;;;4.90;1.00;;;;;;4993527;28;20393;-83
2023/11/12 07:09:17;;;;;;;2.90;1.40;;;5.00;1.00;;;;;;4979357;28;20429;-85
2023/11/12 07:11:43;;;;;;;1.80;1.60;;;4.80;1.00;;;;;;4998057;28;20478;-84
2023/11/12 07:14:08;;;;;;;2.90;1.50;;;4.90;1.00;;;;;;4990607;28;20423;-83
2023/11/12 07:16:35;;;;;;;4.43;1.63;;;5.00;1.00;;;;;;4991335;28;20400;-84
2023/11/12 07:19:00;;;;;;;2.40;1.55;;;5.10;1.00;;;;;;4990350;28;20444;-84
2023/11/12 07:21:30;;;;;;;2.20;1.67;;;5.00;1.00;;;;;;4990635;28;20406;-84
2023/11/12 07:23:57;;;;;;;3.05;1.30;;;5.20;1.00;;;;;;4990027;28;20423;-85
2023/11/12 07:26:26;;;;;;;3.30;2.10;;;4.90;1.00;;;;;;4981405;28;20767;-84
2023/11/12 07:28:53;;;;;;;1.77;1.60;;;5.10;1.00;;;;;;5013030;28;20454;-85
2023/11/12 07:31:21;;;;;;;3.72;1.40;;;5.30;1.00;;;;;;4993350;28;20395;-84
2023/11/12 07:33:47;;;;;;;2.60;1.30;;;5.10;1.00;;;;;;5009448;28;20406;-84
2023/11/12 07:36:13;;;;;;;2.53;1.20;;;5.50;1.00;;;;;;4993573;28;20413;-84
2023/11/12 07:38:40;;;;;;;2.33;1.30;;;5.40;1.00;;;;;;4992438;28;20417;-83
2023/11/12 07:41:09;;;;;;;2.70;1.58;;;5.30;1.00;;;;;;5010373;28;20386;-84
2023/11/12 07:43:35;;;;;;;3.25;1.85;;;5.50;1.00;;;;;;5004852;28;20396;-84
2023/11/12 07:46:02;;;;;;;3.58;1.70;;;4.80;1.00;;;;;;4976257;28;20384;-83
2023/11/12 07:48:29;;;;;;;2.17;1.50;;;7.10;1.00;;;;;;4974697;28;20400;-83
2023/11/12 07:50:56;;;;;;;1.80;1.57;;;5.30;1.00;;;;;;4991240;28;20388;-83
2023/11/12 07:53:22;;;;;;;2.50;1.70;;;5.50;1.00;;;;;;4993475;28;20416;-84
2023/11/12 07:55:47;;;;;;;2.10;1.90;;;5.70;1.00;;;;;;4990904;28;20833;-84
2023/11/12 07:58:13;;;;;;;2.80;2.10;;;5.60;1.00;;;;;;4994276;28;20424;-83
2023/11/12 08:00:38;;;;;;;2.70;1.80;;;5.70;1.00;;;;;;5002545;28;20751;-83
2023/11/12 08:03:04;;;;;;;3.80;1.70;;;5.70;1.00;;;;;;5011057;28;20453;-84
2023/11/12 08:05:29;;;;;;;3.17;2.03;;;5.70;1.00;;;;;;5009473;28;20394;-84
2023/11/12 08:07:55;;;;;;;2.30;1.80;;;5.70;1.00;;;;;;4996010;28;20442;-83
2023/11/12 08:13:04;;;;;;;2.33;1.58;;;5.70;1.00;;;;;;814433;26;20850;-84
2023/11/12 08:23:21;;;;;;;;;;;;;;;;;;;;;
2023/11/12 08:26:29;;;;;;;;;;;;;;;;;;;;;
2023/11/12 08:29:34;;;;;;;;;;;;;;;;;;;;;
2023/11/12 08:32:26;;;;;;;2.50;1.60;;;6.00;1.00;;;;;;4960065;28;20461;-84
2023/11/12 08:35:22;;;;;;;2.33;1.70;;;5.30;1.00;;;;;;4983791;28;20404;-85
2023/11/12 08:38:15;;;;;;;2.90;2.20;;;6.70;1.00;;;;;;4984123;28;20392;-85
2023/11/12 08:41:52;;;;;;;2.88;1.60;;;6.30;1.00;;;;;;5004769;28;20458;-84
2023/11/12 08:44:37;;;;;;;3.13;1.88;;;6.20;1.00;;;;;;4988126;28;20384;-85
2023/11/12 08:47:52;;;;;;;3.73;2.20;;;6.70;1.00;;;;;;4985025;28;20429;-83
2023/11/12 08:50:24;;;;;;;4.70;3.10;;;8.70;1.00;;;;;;4981495;28;20418;-85
2023/11/12 08:56:30;;;;;;;2.60;2.10;;;6.60;1.00;;;;;;5012436;28;20477;-83
2023/11/12 09:05:36;;;;;;;3.00;2.40;;;5.50;1.00;;;;;;4995119;28;20383;-83
2023/11/12 09:08:39;;;;;;;2.90;2.60;;;6.40;1.00;;;;;;4984312;28;20723;-83
2023/11/12 09:11:32;;;;;;;3.30;2.30;;;6.90;1.00;;;;;;4983826;28;20400;-83
2023/11/12 09:14:50;;;;;;;3.65;2.33;;;8.00;1.00;;;;;;4984657;28;20495;-83
2023/11/12 09:34:07;;;;;;;3.60;3.08;;;6.70;1.00;;;;;;5000707;28;20414;-83
2023/11/12 09:37:03;;;;;;;4.05;2.97;;;7.20;1.00;;;;;;4984043;28;20398;-84
2023/11/12 09:39:32;;;;;;;4.70;2.80;;;6.90;1.00;;;;;;4979719;28;20405;-84
2023/11/12 09:42:01;;;;;;;3.07;2.40;;;9.20;1.00;;;;;;5000125;28;20771;-85
2023/11/12 09:44:31;;;;;;;3.13;2.35;;;6.60;1.00;;;;;;4981456;28;20422;-85
2023/11/12 09:47:34;;;;;;;2.72;2.30;;;8.00;1.00;;;;;;4998053;28;20462;-85
2023/11/12 09:50:04;;;;;;;4.00;3.00;;;5.60;1.00;;;;;;4963843;28;20483;-84
2023/11/12 09:52:32;;;;;;;3.25;2.20;;;6.50;1.00;;;;;;4981114;28;20920;-85
2023/11/12 09:55:00;;;;;;;4.32;2.65;;;6.10;1.00;;;;;;4963183;28;20392;-85
2023/11/12 09:57:27;;;;;;;2.85;2.65;;;7.00;1.00;;;;;;4981023;28;20391;-84
2023/11/12 09:59:53;;;;;;;3.40;3.10;;;8.20;1.00;;;;;;4980385;28;20392;-85
2023/11/12 10:02:20;;;;;;;3.20;2.90;;;6.70;1.00;;;;;;4979535;28;20885;-86
2023/11/12 10:04:59;;;;;;;3.38;2.90;;;6.70;1.00;;;;;;4961741;28;20404;-84
2023/11/12 10:07:25;;;;;;;3.53;2.55;;;6.70;1.00;;;;;;4962907;28;20395;-84
2023/11/12 10:09:54;;;;;;;2.80;2.50;;;6.60;1.00;;;;;;4969771;28;20388;-84
2023/11/12 10:12:20;;;;;;;2.47;2.28;;;6.60;1.00;;;;;;4964786;28;20440;-84
2023/11/12 10:14:46;;;;;;;2.60;1.85;;;6.70;1.00;;;;;;4965608;28;20399;-84
2023/11/12 10:17:12;;;;;;;2.35;1.85;;;6.80;1.00;;;;;;4969440;28;20400;-84
2023/11/12 10:19:38;;;;;;;2.30;2.10;;;6.90;1.00;;;;;;4976868;28;20425;-85
2023/11/12 10:22:07;;;;;;;3.40;2.10;;;7.40;1.00;;;;;;4981056;28;20390;-85
2023/11/12 10:24:46;;;;;;;2.33;2.00;;;7.00;1.00;;;;;;4998964;28;20387;-84
2023/11/12 10:27:14;;;;;;;2.67;2.00;;;6.80;1.00;;;;;;4975855;28;20407;-85
2023/11/12 10:29:41;;;;;;;2.10;1.90;;;6.80;1.00;;;;;;4963131;28;20452;-84
2023/11/12 10:32:07;;;;;;;2.40;2.20;;;6.90;1.00;;;;;;4973587;28;20410;-82
2023/11/12 10:34:34;;;;;;;3.20;2.40;;;7.10;1.00;;;;;;4979210;28;20404;-83
2023/11/12 10:37:13;;;;;;;2.78;2.25;;;6.90;1.00;;;;;;4979674;28;20403;-85
2023/11/12 10:39:41;;;;;;;2.30;2.07;;;6.80;1.00;;;;;;4971440;28;20746;-84
2023/11/12 10:42:26;;;;;;;2.97;2.10;;;6.90;1.00;;;;;;4968183;28;20411;-82
2023/11/12 10:44:55;;;;;;;2.80;2.60;;;6.80;1.00;;;;;;4982190;28;20411;-84
2023/11/12 10:47:32;;;;;;;3.57;2.50;;;6.30;1.00;;;;;;4968988;28;20980;-85
2023/11/12 11:03:39;;;;;;;3.30;2.60;;;6.60;1.00;;;;;;5030691;22;20440;-83
2023/11/12 11:06:10;;;;;;;3.30;2.50;;;6.50;1.00;;;;;;5011749;28;20395;-85
2023/11/12 11:08:50;;;;;;;2.90;2.45;;;6.90;1.00;;;;;;5002394;28;20606;-85
2023/11/12 11:11:42;;;;;;;3.75;2.83;;;6.50;1.00;;;;;;4992028;28;20467;-85
2023/11/12 11:14:34;;;;;;;3.45;3.15;;;8.00;1.00;;;;;;4979984;28;20912;-85
2023/11/12 11:17:09;;;;;;;3.90;3.30;;;7.20;1.00;;;;;;4993096;28;20391;-86
2023/11/12 11:19:48;;;;;;;3.20;2.90;;;6.40;1.00;;;;;;4977111;28;20414;-83
2023/11/12 11:22:39;;;;;;;3.10;2.90;;;8.10;1.00;;;;;;4979050;28;20392;-83
2023/11/12 11:25:26;;;;;;;3.20;2.70;;;6.40;1.00;;;;;;4983746;28;20884;-86
2023/11/12 11:28:25;;;;;;;3.45;2.95;;;6.60;1.00;;;;;;4983587;28;20399;-85
2023/11/12 11:31:13;;;;;;;3.17;2.80;;;6.80;1.00;;;;;;4987408;28;20407;-86
2023/11/12 11:33:51;;;;;;;3.70;3.10;;;6.60;1.00;;;;;;4991562;28;20438;-85
2023/11/12 11:36:18;;;;;;;3.22;2.83;;;6.70;1.00;;;;;;4985692;28;20489;-86
2023/11/12 11:39:12;;;;;;;3.85;3.00;;;6.40;1.00;;;;;;4994668;28;20395;-83
2023/11/12 11:42:07;;;;;;;3.10;2.80;;;6.60;1.00;;;;;;4956350;29;20385;-86
2023/11/12 11:44:37;;;;;;;3.47;3.17;;;6.60;1.00;;;;;;4964453;28;20900;-84
2023/11/12 11:47:11;;;;;;;4.15;3.15;;;6.70;1.00;;;;;;4973464;28;20435;-83
2023/11/12 11:49:38;;;;;;;3.37;3.07;;;6.60;1.00;;;;;;4973406;28;20737;-84
2023/11/12 11:52:06;;;;;;;3.20;2.75;;;6.50;1.00;;;;;;4981094;28;20401;-84
2023/11/12 11:54:32;;;;;;;3.35;3.03;;;6.50;1.00;;;;;;4989006;28;20409;-84
2023/11/12 11:56:58;;;;;;;3.40;3.10;;;6.50;1.00;;;;;;4994141;28;20395;-84
2023/11/12 11:59:24;;;;;;;3.30;3.00;;;6.60;1.00;;;;;;4992653;28;20469;-84
2023/11/12 12:01:55;;;;;;;3.55;3.13;;;6.80;1.00;;;;;;4992876;28;20428;-84
2023/11/12 12:04:21;;;;;;;3.65;3.35;;;6.50;1.00;;;;;;4991959;28;20394;-84
2023/11/12 12:06:47;;;;;;;4.63;3.78;;;6.80;1.00;;;;;;4992156;28;20394;-84
2023/11/12 12:09:17;;;;;;;4.55;3.80;;;6.80;1.00;;;;;;4993027;28;20398;-84
2023/11/12 12:11:53;;;;;;;4.35;3.95;;;6.80;1.00;;;;;;4993227;28;20414;-84
2023/11/12 12:14:24;;;;;;;5.50;4.50;;;6.90;1.00;;;;;;4992758;28;20410;-85
2023/11/12 12:16:50;;;;;;;4.90;4.38;;;6.70;1.00;;;;;;4994919;28;20390;-84
2023/11/12 12:19:23;;;;;;;4.90;4.50;;;6.40;1.00;;;;;;4992556;28;20390;-85
2023/11/12 12:21:55;;;;;;;4.78;4.28;;;6.80;1.00;;;;;;4994484;28;20394;-85
2023/11/12 12:25:24;;;;;;;4.90;4.50;;;6.50;1.00;;;;;;4993300;28;20395;-85
2023/11/12 12:27:55;;;;;;;5.00;4.50;;;9.90;1.00;;;;;;4963334;28;20850;-86
2023/11/12 12:30:39;;;;;;;5.20;4.80;;;7.20;1.00;;;;;;4997010;28;20402;-85
2023/11/12 12:33:32;;;;;;;5.40;4.90;;;6.90;1.00;;;;;;4999282;28;20407;-86
2023/11/12 12:36:14;;;;;;;5.30;4.80;;;7.90;1.00;;;;;;5006954;28;20462;-85
2023/11/12 12:39:15;;;;;;;5.70;5.20;;;6.70;1.00;;;;;;4996763;28;20397;-85
2023/11/12 12:41:43;;;;;;;5.10;4.60;;;7.00;1.00;;;;;;4996685;28;20389;-85
2023/11/12 12:44:29;;;;;;;5.38;4.70;;;7.20;1.00;;;;;;4986207;28;20392;-86
2023/11/12 12:46:55;;;;;;;5.40;4.90;;;10.30;1.00;;;;;;4978599;28;20496;-85
2023/11/12 12:49:39;;;;;;;6.00;4.67;;;7.40;1.00;;;;;;4996184;28;20426;-85
2023/11/12 12:52:20;;;;;;;5.38;4.97;;;6.80;1.00;;;;;;4996503;28;20449;-86
2023/11/12 12:54:54;;;;;;;5.72;4.78;;;6.20;1.00;;;;;;4995548;28;20463;-85
2023/11/12 12:57:22;;;;;;;6.10;5.32;;;7.00;1.00;;;;;;4996442;28;20394;-85
2023/11/12 12:59:47;;;;;;;5.20;4.80;;;6.90;1.00;;;;;;4995726;28;20383;-85
2023/11/12 13:02:15;;;;;;;4.30;3.90;;;6.90;1.00;;;;;;4992762;28;20408;-85
2023/11/12 13:04:44;;;;;;;4.78;4.10;;;7.00;1.00;;;;;;5003943;28;20421;-85
2023/11/12 13:07:19;;;;;;;4.20;3.80;;;8.40;1.00;;;;;;5005190;28;20393;-87
2023/11/12 13:09:49;;;;;;;3.80;3.50;;;7.10;1.00;;;;;;5004602;28;20478;-85
2023/11/12 13:12:15;;;;;;;4.22;3.85;;;8.00;1.00;;;;;;5002101;28;20394;-86
2023/11/12 13:15:00;;;;;;;4.30;3.20;;;7.10;1.00;;;;;;4999519;28;20399;-86
2023/11/12 13:17:38;;;;;;;4.97;3.72;;;7.10;1.00;;;;;;4997160;28;20477;-86
2023/11/12 13:20:09;;;;;;;3.72;3.40;;;9.70;1.00;;;;;;5002067;28;20395;-87
2023/11/12 13:22:39;;;;;;;3.00;2.70;;;7.10;1.00;;;;;;4978574;28;20513;-86
2023/11/12 13:28:47;;;;;;;3.50;3.20;;;6.90;1.00;;;;;;4983023;28;20429;-85
2023/11/12 13:31:15;;;;;;;2.50;2.20;;;9.40;1.00;;;;;;4980098;28;20913;-86
2023/11/12 13:33:41;;;;;;;2.20;2.00;;;7.00;1.00;;;;;;4984872;28;20510;-86
2023/11/12 13:36:39;;;;;;;2.20;2.00;;;9.60;1.00;;;;;;4980291;28;20493;-85
2023/11/12 13:39:27;;;;;;;2.10;1.90;;;7.00;1.00;;;;;;4980611;28;20772;-86
2023/11/12 13:42:06;;;;;;;1.92;1.83;;;10.00;1.00;;;;;;4981276;28;20408;-85
2023/11/12 13:44:36;;;;;;;1.48;1.38;;;8.40;1.00;;;;;;4988984;28;20428;-85
2023/11/12 13:47:05;;;;;;;2.30;1.73;;;6.90;1.00;;;;;;4998932;28;20462;-85
2023/11/12 13:49:43;;;;;;;2.28;1.92;;;6.90;1.00;;;;;;4982033;28;20397;-85
2023/11/12 13:52:22;;;;;;;2.78;1.90;;;8.90;1.00;;;;;;4985831;28;20430;-84
2023/11/12 13:54:47;;;;;;;1.90;1.67;;;7.20;1.00;;;;;;5000580;28;20399;-85
2023/11/12 13:57:16;;;;;;;1.75;1.65;;;9.20;1.00;;;;;;5000442;28;20387;-85
2023/11/12 13:59:42;;;;;;;2.80;1.70;;;9.30;1.00;;;;;;4994597;28;20478;-85
2023/11/12 14:02:10;;;;;;;2.28;1.55;;;6.80;1.00;;;;;;4988396;28;20437;-85
2023/11/12 14:04:39;;;;;;;2.40;1.50;;;9.40;1.00;;;;;;4988504;28;20411;-85
2023/11/12 14:07:05;;;;;;;1.40;1.20;;;8.00;1.00;;;;;;4979008;28;20388;-84
2023/11/12 14:09:47;;;;;;;1.80;1.60;;;8.40;1.00;;;;;;4976967;28;20415;-86
2023/11/12 14:12:19;;;;;;;1.80;1.30;;;7.00;1.00;;;;;;4977663;28;20402;-85
2023/11/12 14:14:49;;;;;;;1.30;0.80;;;6.90;1.00;;;;;;4986077;28;20405;-86
2023/11/12 14:17:20;;;;;;;1.15;1.05;;;5.50;1.00;;;;;;4979715;28;20396;-85
2023/11/12 14:19:46;;;;;;;1.37;1.27;;;7.70;1.00;;;;;;4992140;28;20465;-84
2023/11/12 14:22:23;;;;;;;4.00;3.70;;;9.00;1.00;;;;;;4985490;28;20430;-85
2023/11/12 14:24:53;;;;;;;4.30;3.90;;;6.50;1.00;;;;;;4981497;28;20400;-84
2023/11/12 14:27:27;;;;;;;3.63;3.33;;;8.00;1.00;;;;;;4977927;28;20476;-84
2023/11/12 14:30:06;;;;;;;4.60;4.20;;;7.10;1.00;;;;;;4971270;28;20441;-84
2023/11/12 14:32:39;;;;;;;4.30;4.00;;;6.90;1.00;;;;;;4981758;28;20462;-84
2023/11/12 14:35:07;;;;;;;3.60;3.30;;;6.50;1.00;;;;;;4979792;28;20404;-85
2023/11/12 14:37:39;;;;;;;2.90;2.70;;;6.80;1.00;;;;;;4982452;28;20462;-84
2023/11/12 14:40:14;;;;;;;3.05;2.85;;;7.40;1.00;;;;;;4976069;28;20413;-84
2023/11/12 14:42:49;;;;;;;2.90;2.70;;;6.90;1.00;;;;;;4987194;28;20386;-84
2023/11/12 14:45:43;;;;;;;2.80;2.60;;;7.00;1.00;;;;;;4982981;28;20390;-85
2023/11/12 14:48:35;;;;;;;2.60;2.03;;;7.00;1.00;;;;;;4987261;28;20408;-86
2023/11/12 14:51:30;;;;;;;2.63;2.20;;;6.80;1.00;;;;;;4984241;28;20398;-85
2023/11/12 14:54:14;;;;;;;4.93;2.85;;;8.60;1.00;;;;;;4988813;28;20412;-85
2023/11/12 14:59:52;;;;;;;2.42;1.80;;;7.30;1.00;;;;;;4985267;28;20451;-86
2023/11/12 15:02:18;;;;;;;5.18;4.53;;;7.20;1.00;;;;;;4985698;28;20922;-85
2023/11/12 15:04:46;;;;;;;5.35;4.20;;;5.40;1.00;;;;;;4991496;28;20458;-86
2023/11/12 15:07:18;;;;;;;4.75;4.38;;;7.80;1.00;;;;;;4985146;28;20903;-85
2023/11/12 15:09:44;;;;;;;4.68;4.28;;;8.50;1.00;;;;;;4987504;28;20400;-81
2023/11/12 15:12:15;;;;;;;4.90;4.50;;;6.50;1.00;;;;;;5004290;28;20394;-85
2023/11/12 15:14:43;;;;;;;6.40;5.80;;;6.80;1.00;;;;;;4997716;28;20433;-85
2023/11/12 15:17:12;;;;;;;5.32;4.82;;;7.20;1.00;;;;;;4996866;28;20471;-85
2023/11/12 15:19:44;;;;;;;5.40;4.90;;;8.70;1.00;;;;;;4985740;28;20501;-83
2023/11/12 15:22:09;;;;;;;5.63;5.03;;;6.90;1.00;;;;;;4979143;28;20438;-84
2023/11/12 15:24:35;;;;;;;6.60;6.00;;;6.70;1.00;;;;;;4980961;28;20392;-84
2023/11/12 15:27:01;;;;;;;5.70;5.20;;;7.00;1.00;;;;;;4975930;28;20412;-82
2023/11/12 15:29:26;;;;;;;5.57;5.10;;;6.50;1.00;;;;;;4981849;28;20435;-82
2023/11/12 15:31:52;;;;;;;5.60;5.17;;;6.60;1.00;;;;;;4980439;28;20432;-81
2023/11/12 15:34:17;;;;;;;5.70;5.20;;;6.90;1.00;;;;;;4976082;28;20482;-82
2023/11/12 15:36:43;;;;;;;5.23;4.73;;;7.00;1.00;;;;;;4975307;28;20475;-82
2023/11/12 15:39:09;;;;;;;4.50;4.10;;;7.10;1.00;;;;;;4975214;28;20888;-82
2023/11/12 15:41:34;;;;;;;4.15;3.75;;;7.20;1.00;;;;;;4980068;28;20444;-82
2023/11/12 15:44:00;;;;;;;3.90;3.60;;;6.70;1.00;;;;;;4974958;28;20451;-83